createdAt,value
2023-07-31T00:01:27.662Z,21.90
2023-07-31T00:03:54.170Z,21.99
2023-07-31T00:06:20.662Z,22.06
2023-07-31T00:08:47.096Z,22.00
2023-07-31T00:11:13.507Z,22.03
2023-07-31T00:13:39.931Z,21.89
2023-07-31T00:16:06.382Z,22.03
2023-07-31T00:18:32.807Z,21.90
2023-07-31T00:20:59.235Z,21.87
2023-07-31T00:23:25.642Z,21.90
2023-07-31T00:25:52.076Z,21.88
2023-07-31T00:28:19.409Z,21.82
2023-07-31T00:30:45.876Z,21.72
2023-07-31T00:33:13.154Z,21.77
2023-07-31T00:35:39.579Z,21.46
2023-07-31T00:38:06.018Z,21.84
2023-07-31T00:40:32.401Z,21.64
2023-07-31T00:43:00.267Z,21.60
2023-07-31T00:45:27.938Z,21.77
2023-07-31T00:47:54.419Z,21.75
2023-07-31T00:50:20.866Z,21.69
2023-07-31T00:52:47.265Z,21.66
2023-07-31T00:55:13.666Z,21.55
2023-07-31T00:57:40.090Z,21.48
2023-07-31T01:00:06.537Z,21.30
2023-07-31T01:02:33.014Z,21.58
2023-07-31T01:04:59.475Z,21.60
2023-07-31T01:07:25.889Z,21.60
2023-07-31T01:09:52.330Z,21.62
2023-07-31T01:12:19.606Z,21.36
2023-07-31T01:14:46.008Z,21.05
2023-07-31T01:17:12.478Z,21.46
2023-07-31T01:19:38.924Z,21.61
2023-07-31T01:22:05.416Z,21.52
2023-07-31T01:24:31.872Z,21.53
2023-07-31T01:26:58.280Z,21.09
2023-07-31T01:29:24.721Z,21.46
2023-07-31T01:31:51.179Z,21.43
2023-07-31T01:34:18.443Z,21.49
2023-07-31T01:36:44.823Z,21.28
2023-07-31T01:39:12.113Z,21.48
2023-07-31T01:41:38.544Z,21.34
2023-07-31T01:44:05.011Z,21.50
2023-07-31T01:46:31.476Z,21.06
2023-07-31T01:48:57.929Z,21.40
2023-07-31T01:51:24.312Z,21.29
2023-07-31T01:53:50.715Z,21.49
2023-07-31T01:56:17.977Z,21.33
2023-07-31T01:58:44.389Z,21.00
2023-07-31T02:01:10.793Z,21.30
2023-07-31T02:03:37.264Z,21.25
2023-07-31T02:06:03.729Z,21.26
2023-07-31T02:08:30.128Z,21.36
2023-07-31T02:10:56.516Z,21.36
2023-07-31T02:13:22.906Z,21.41
2023-07-31T02:15:49.295Z,21.14
2023-07-31T02:18:15.660Z,21.21
2023-07-31T02:20:42.062Z,21.26
2023-07-31T02:23:09.560Z,21.15
2023-07-31T02:25:35.963Z,21.29
2023-07-31T02:28:02.399Z,21.27
2023-07-31T02:30:28.853Z,21.38
2023-07-31T02:32:55.299Z,21.24
2023-07-31T02:35:21.752Z,20.94
2023-07-31T02:37:48.176Z,21.15
2023-07-31T02:40:15.454Z,20.79
2023-07-31T02:42:41.865Z,21.10
2023-07-31T02:45:08.291Z,21.32
2023-07-31T02:47:34.764Z,21.04
2023-07-31T02:50:01.222Z,20.94
2023-07-31T02:52:27.655Z,21.18
2023-07-31T02:54:54.076Z,21.07
2023-07-31T02:57:20.488Z,21.20
2023-07-31T02:59:46.907Z,21.24
2023-07-31T03:02:13.446Z,21.01
2023-07-31T03:04:40.040Z,21.05
2023-07-31T03:07:06.495Z,21.11
2023-07-31T03:09:32.914Z,21.04
2023-07-31T03:11:59.315Z,20.91
2023-07-31T03:14:25.723Z,20.86
2023-07-31T03:16:52.146Z,21.15
2023-07-31T03:19:18.575Z,21.02
2023-07-31T03:21:44.999Z,20.80
2023-07-31T03:24:11.456Z,20.84
2023-07-31T03:26:38.265Z,20.84
2023-07-31T03:29:04.994Z,20.95
2023-07-31T03:31:31.406Z,21.07
2023-07-31T03:33:57.840Z,21.03
2023-07-31T03:36:24.233Z,21.07
2023-07-31T03:38:50.652Z,20.96
2023-07-31T03:41:17.051Z,21.00
2023-07-31T03:43:43.448Z,20.69
2023-07-31T03:46:10.814Z,20.78
2023-07-31T03:48:37.311Z,21.00
2023-07-31T03:51:03.732Z,21.07
2023-07-31T03:53:30.158Z,20.80
2023-07-31T03:55:56.597Z,20.98
2023-07-31T03:58:23.024Z,21.06
2023-07-31T04:00:49.486Z,21.05
2023-07-31T04:03:15.908Z,20.77
2023-07-31T04:05:42.315Z,20.95
2023-07-31T04:08:08.783Z,21.03
2023-07-31T04:10:35.187Z,21.06
2023-07-31T04:13:01.586Z,21.35
2023-07-31T04:15:27.970Z,20.62
2023-07-31T04:17:55.287Z,21.00
2023-07-31T04:20:23.649Z,21.41
2023-07-31T04:22:50.070Z,21.05
2023-07-31T04:25:17.386Z,21.12
2023-07-31T04:27:44.688Z,21.06
2023-07-31T04:30:14.695Z,21.07
2023-07-31T04:32:41.222Z,21.00
2023-07-31T04:35:09.547Z,21.09
2023-07-31T04:37:36.100Z,21.01
2023-07-31T04:40:02.596Z,21.06
2023-07-31T04:42:29.861Z,20.93
2023-07-31T04:44:56.281Z,21.17
2023-07-31T04:47:22.692Z,21.21
2023-07-31T04:49:49.125Z,21.08
2023-07-31T04:52:16.388Z,21.10
2023-07-31T04:54:43.193Z,20.94
2023-07-31T04:57:10.663Z,21.07
2023-07-31T04:59:37.373Z,20.96
2023-07-31T05:02:04.108Z,20.73
2023-07-31T05:04:30.798Z,20.70
2023-07-31T05:06:57.195Z,20.69
2023-07-31T05:09:23.602Z,20.86
2023-07-31T05:11:50.022Z,20.98
2023-07-31T05:14:17.281Z,20.94
2023-07-31T05:16:43.998Z,21.09
2023-07-31T05:19:10.741Z,21.25
2023-07-31T05:21:37.135Z,21.14
2023-07-31T05:24:03.622Z,21.11
2023-07-31T05:26:30.027Z,21.22
2023-07-31T05:28:56.461Z,21.10
2023-07-31T05:31:22.879Z,20.87
2023-07-31T05:33:49.305Z,20.91
2023-07-31T05:36:16.580Z,20.94
2023-07-31T05:38:43.506Z,21.10
2023-07-31T05:41:10.847Z,21.08
2023-07-31T05:43:37.272Z,20.59
2023-07-31T05:46:06.451Z,21.03
2023-07-31T05:48:33.181Z,21.31
2023-07-31T05:51:02.416Z,21.21
2023-07-31T05:53:28.822Z,21.17
2023-07-31T05:55:56.148Z,21.32
2023-07-31T05:58:22.569Z,20.91
2023-07-31T06:00:48.998Z,20.74
2023-07-31T06:03:16.292Z,20.71
2023-07-31T06:05:42.753Z,20.85
2023-07-31T06:08:10.071Z,21.04
2023-07-31T06:10:36.508Z,21.19
2023-07-31T06:13:02.949Z,21.04
2023-07-31T06:15:29.327Z,20.88
2023-07-31T06:17:56.640Z,20.70
2023-07-31T06:20:23.097Z,20.95
2023-07-31T06:22:49.501Z,20.95
2023-07-31T06:25:16.152Z,20.74
2023-07-31T06:27:42.798Z,20.57
2023-07-31T06:30:10.100Z,20.94
2023-07-31T06:32:37.426Z,20.99
2023-07-31T06:35:03.848Z,20.95
2023-07-31T06:37:30.251Z,20.74
2023-07-31T06:39:56.699Z,20.22
2023-07-31T06:42:23.104Z,21.03
2023-07-31T06:44:49.544Z,21.24
2023-07-31T06:47:16.830Z,21.22
2023-07-31T06:49:43.243Z,20.79
2023-07-31T06:52:10.524Z,20.75
2023-07-31T06:54:36.969Z,21.00
2023-07-31T06:57:03.397Z,21.04
2023-07-31T06:59:29.804Z,20.59
2023-07-31T07:01:56.203Z,20.80
2023-07-31T07:04:22.614Z,20.31
2023-07-31T07:06:49.041Z,20.08
2023-07-31T07:09:15.466Z,20.44
2023-07-31T07:11:41.896Z,20.43
2023-07-31T07:14:09.160Z,20.58
2023-07-31T07:16:35.673Z,20.29
2023-07-31T07:19:05.047Z,20.34
2023-07-31T07:21:31.934Z,20.61
2023-07-31T07:23:58.394Z,20.45
2023-07-31T07:26:24.822Z,20.64
2023-07-31T07:28:51.298Z,20.84
2023-07-31T07:31:18.654Z,21.05
2023-07-31T07:33:45.076Z,21.21
2023-07-31T07:36:12.366Z,21.08
2023-07-31T07:38:38.792Z,21.24
2023-07-31T07:41:05.256Z,21.22
2023-07-31T07:43:31.682Z,21.34
2023-07-31T07:45:58.285Z,21.27
2023-07-31T07:48:24.787Z,21.17
2023-07-31T07:50:51.522Z,20.87
2023-07-31T07:53:18.864Z,21.08
2023-07-31T07:55:45.303Z,21.25
2023-07-31T07:58:12.003Z,21.06
2023-07-31T08:00:39.309Z,21.34
2023-07-31T08:03:05.904Z,21.48
2023-07-31T08:05:33.562Z,21.64
2023-07-31T08:08:00.074Z,21.75
2023-07-31T08:10:26.509Z,21.69
2023-07-31T08:12:52.920Z,21.29
2023-07-31T08:15:19.375Z,21.38
2023-07-31T08:17:45.845Z,21.74
2023-07-31T08:20:13.186Z,21.77
2023-07-31T08:22:39.696Z,21.77
2023-07-31T08:25:06.174Z,21.80
2023-07-31T08:27:32.571Z,21.93
2023-07-31T08:29:59.098Z,21.93
2023-07-31T08:32:25.584Z,21.88
2023-07-31T08:34:52.026Z,21.97
2023-07-31T08:37:18.505Z,22.10
2023-07-31T08:39:44.932Z,22.01
2023-07-31T08:42:11.377Z,22.10
2023-07-31T08:44:37.809Z,22.01
2023-07-31T08:47:04.268Z,22.10
2023-07-31T08:49:30.822Z,22.16
2023-07-31T08:51:57.295Z,22.23
2023-07-31T08:54:24.646Z,22.17
2023-07-31T08:56:51.965Z,22.27
2023-07-31T08:59:19.320Z,22.26
2023-07-31T09:01:45.881Z,22.23
2023-07-31T09:04:13.254Z,22.21
2023-07-31T09:06:39.951Z,22.25
2023-07-31T09:09:06.629Z,22.29
2023-07-31T09:11:33.903Z,22.28
2023-07-31T09:14:00.357Z,22.02
2023-07-31T09:16:26.817Z,22.08
2023-07-31T09:18:53.366Z,22.11
2023-07-31T09:21:19.867Z,22.13
2023-07-31T09:23:46.376Z,22.20
2023-07-31T09:26:13.693Z,22.14
2023-07-31T09:28:40.973Z,22.26
2023-07-31T09:31:07.494Z,22.27
2023-07-31T09:33:34.003Z,22.20
2023-07-31T09:36:01.517Z,22.30
2023-07-31T09:38:27.970Z,22.28
2023-07-31T09:40:54.403Z,22.09
2023-07-31T09:43:21.715Z,22.17
2023-07-31T09:45:48.223Z,22.14
2023-07-31T09:48:15.565Z,22.14
2023-07-31T09:50:42.023Z,22.22
2023-07-31T09:53:08.482Z,22.32
2023-07-31T09:55:35.042Z,22.29
2023-07-31T09:58:01.443Z,22.32
2023-07-31T10:00:27.959Z,22.29
2023-07-31T10:02:54.406Z,22.43
2023-07-31T10:05:20.970Z,22.42
2023-07-31T10:07:47.383Z,22.39
2023-07-31T10:10:13.792Z,22.31
2023-07-31T10:12:40.203Z,22.34
2023-07-31T10:15:06.605Z,22.36
2023-07-31T10:17:33.023Z,22.37
2023-07-31T10:19:59.441Z,22.28
2023-07-31T10:22:25.863Z,22.28
2023-07-31T10:24:52.301Z,22.23
2023-07-31T10:27:19.632Z,22.27
2023-07-31T10:29:46.056Z,22.30
2023-07-31T10:32:13.327Z,22.29
2023-07-31T10:34:39.742Z,22.31
2023-07-31T10:37:06.148Z,22.27
2023-07-31T10:39:32.519Z,22.28
2023-07-31T10:41:58.958Z,22.30
2023-07-31T10:44:25.449Z,22.28
2023-07-31T10:46:51.970Z,22.30
2023-07-31T10:49:18.466Z,22.32
2023-07-31T10:51:44.885Z,22.28
2023-07-31T10:54:12.150Z,22.27
2023-07-31T10:56:38.954Z,22.38
2023-07-31T10:59:05.696Z,22.37
2023-07-31T11:01:32.163Z,22.32
2023-07-31T11:03:58.742Z,22.29
2023-07-31T11:06:25.607Z,22.36
2023-07-31T11:08:52.101Z,22.39
2023-07-31T11:11:18.550Z,22.42
2023-07-31T11:13:44.964Z,22.46
2023-07-31T11:16:11.495Z,22.37
2023-07-31T11:18:37.922Z,22.31
2023-07-31T11:21:04.427Z,22.26
2023-07-31T11:23:30.877Z,22.26
2023-07-31T11:25:57.371Z,22.36
2023-07-31T11:28:23.838Z,22.38
2023-07-31T11:30:50.347Z,22.38
2023-07-31T11:33:16.779Z,22.42
2023-07-31T11:35:43.177Z,22.44
2023-07-31T11:38:10.447Z,22.43
2023-07-31T11:40:36.861Z,22.33
2023-07-31T11:43:03.589Z,22.34
2023-07-31T11:45:29.999Z,22.32
2023-07-31T11:47:56.449Z,22.31
2023-07-31T11:50:22.904Z,22.38
2023-07-31T11:52:49.304Z,22.37
2023-07-31T11:55:15.778Z,22.42
2023-07-31T11:57:42.194Z,22.46
2023-07-31T12:00:09.039Z,22.44
2023-07-31T12:02:35.580Z,22.43
2023-07-31T12:05:01.995Z,22.38
2023-07-31T12:07:28.401Z,22.38
2023-07-31T12:09:54.846Z,22.37
2023-07-31T12:12:21.262Z,22.37
2023-07-31T12:14:47.719Z,22.37
2023-07-31T12:17:14.979Z,22.38
2023-07-31T12:19:41.401Z,22.43
2023-07-31T12:22:07.811Z,22.38
2023-07-31T12:24:34.250Z,22.35
2023-07-31T12:27:00.651Z,22.37
2023-07-31T12:29:27.084Z,22.41
2023-07-31T12:31:53.507Z,22.40
2023-07-31T12:34:19.994Z,22.41
2023-07-31T12:36:46.395Z,22.43
2023-07-31T12:39:12.806Z,22.40
2023-07-31T12:41:39.449Z,22.40
2023-07-31T12:44:05.871Z,22.42
2023-07-31T12:46:32.358Z,22.42
2023-07-31T12:48:58.850Z,22.40
2023-07-31T12:51:25.251Z,22.48
2023-07-31T12:53:51.644Z,22.50
2023-07-31T12:56:18.049Z,22.53
2023-07-31T12:58:44.447Z,22.54
2023-07-31T13:01:10.901Z,22.59
2023-07-31T13:03:37.548Z,22.64
2023-07-31T13:06:04.227Z,22.63
2023-07-31T13:08:30.628Z,22.61
2023-07-31T13:10:57.051Z,22.67
2023-07-31T13:13:23.541Z,22.69
2023-07-31T13:15:50.011Z,22.71
2023-07-31T13:18:16.457Z,22.64
2023-07-31T13:20:42.884Z,22.65
2023-07-31T13:23:10.192Z,22.67
2023-07-31T13:25:36.892Z,22.69
2023-07-31T13:28:04.030Z,22.63
2023-07-31T13:30:30.618Z,22.65
2023-07-31T13:32:57.105Z,22.62
2023-07-31T13:35:23.575Z,22.62
2023-07-31T13:37:50.127Z,22.64
2023-07-31T13:40:16.548Z,22.56
2023-07-31T13:42:42.947Z,22.59
2023-07-31T13:45:10.354Z,22.60
2023-07-31T13:47:36.819Z,22.60
2023-07-31T13:50:03.296Z,22.63
2023-07-31T13:52:29.753Z,22.58
2023-07-31T13:54:56.164Z,22.74
2023-07-31T13:57:22.520Z,22.73
2023-07-31T13:59:48.928Z,22.68
2023-07-31T14:02:15.337Z,22.62
2023-07-31T14:04:41.745Z,22.69
2023-07-31T14:07:08.184Z,22.69
2023-07-31T14:09:34.586Z,22.63
2023-07-31T14:12:01.048Z,22.58
2023-07-31T14:14:27.452Z,22.56
2023-07-31T14:16:54.021Z,22.60
2023-07-31T14:19:20.662Z,22.61
2023-07-31T14:21:57.204Z,22.65
2023-07-31T14:24:31.922Z,22.66
2023-07-31T14:26:58.329Z,22.65
2023-07-31T14:29:24.735Z,22.65
2023-07-31T14:31:51.152Z,22.61
2023-07-31T14:34:18.455Z,22.56
2023-07-31T14:36:44.879Z,22.65
2023-07-31T14:39:11.274Z,22.63
2023-07-31T14:41:37.699Z,22.65
2023-07-31T14:44:04.177Z,22.66
2023-07-31T14:46:30.688Z,22.62
2023-07-31T14:48:57.164Z,22.64
2023-07-31T14:51:23.596Z,22.63
2023-07-31T14:53:50.107Z,22.67
2023-07-31T14:56:16.512Z,22.68
2023-07-31T14:58:43.390Z,22.66
2023-07-31T15:01:10.701Z,22.66
2023-07-31T15:03:37.258Z,22.65
2023-07-31T15:06:03.785Z,22.63
2023-07-31T15:08:30.201Z,22.59
2023-07-31T15:10:56.726Z,22.67
2023-07-31T15:13:23.166Z,22.68
2023-07-31T15:15:49.596Z,22.63
2023-07-31T15:18:16.872Z,22.62
2023-07-31T15:20:43.291Z,22.63
2023-07-31T15:23:10.578Z,22.65
2023-07-31T15:25:36.994Z,22.61
2023-07-31T15:28:03.476Z,22.62
2023-07-31T15:30:29.908Z,22.59
2023-07-31T15:32:56.374Z,22.58
2023-07-31T15:35:22.997Z,22.50
2023-07-31T15:37:49.407Z,22.52
2023-07-31T15:40:16.658Z,22.49
2023-07-31T15:42:43.061Z,22.56
2023-07-31T15:45:09.559Z,22.54
2023-07-31T15:47:35.979Z,22.55
2023-07-31T15:50:02.395Z,22.57
2023-07-31T15:52:28.813Z,22.55
2023-07-31T15:54:55.224Z,22.50
2023-07-31T15:57:22.572Z,22.57
2023-07-31T15:59:48.984Z,22.47
2023-07-31T16:02:16.326Z,22.56
2023-07-31T16:04:42.811Z,22.59
2023-07-31T16:07:10.105Z,22.55
2023-07-31T16:09:36.543Z,22.57
2023-07-31T16:12:02.946Z,22.55
2023-07-31T16:14:29.373Z,22.58
2023-07-31T16:16:55.763Z,22.58
2023-07-31T16:19:22.664Z,22.58
2023-07-31T16:21:49.063Z,22.57
2023-07-31T16:24:16.339Z,22.57
2023-07-31T16:26:43.104Z,22.55
2023-07-31T16:29:09.788Z,22.55
2023-07-31T16:31:46.944Z,22.54
2023-07-31T16:34:22.207Z,22.54
2023-07-31T16:36:48.645Z,22.52
2023-07-31T16:39:17.464Z,22.51
2023-07-31T16:41:44.896Z,22.55
2023-07-31T16:44:11.308Z,22.55
2023-07-31T16:46:37.990Z,22.55
2023-07-31T16:49:04.951Z,22.55
2023-07-31T16:51:32.530Z,22.53
2023-07-31T16:53:59.517Z,22.51
2023-07-31T16:56:26.029Z,22.52
2023-07-31T16:58:52.490Z,22.54
2023-07-31T17:01:18.952Z,22.55
2023-07-31T17:03:45.519Z,22.56
2023-07-31T17:06:12.134Z,22.56
2023-07-31T17:08:38.571Z,22.55
2023-07-31T17:11:05.006Z,22.52
2023-07-31T17:13:31.446Z,22.53
2023-07-31T17:15:57.888Z,22.52
2023-07-31T17:18:24.384Z,22.51
2023-07-31T17:20:50.782Z,22.52
2023-07-31T17:23:18.082Z,22.54
2023-07-31T17:25:44.531Z,22.55
2023-07-31T17:28:11.032Z,22.56
2023-07-31T17:30:37.514Z,22.55
2023-07-31T17:33:04.056Z,22.53
2023-07-31T17:35:30.668Z,22.55
2023-07-31T17:37:59.117Z,22.51
2023-07-31T17:40:25.805Z,22.51
2023-07-31T17:42:52.524Z,22.49
2023-07-31T17:45:18.933Z,22.51
2023-07-31T17:47:45.394Z,22.53
2023-07-31T17:50:12.763Z,22.55
2023-07-31T17:52:39.453Z,22.62
2023-07-31T17:55:05.911Z,22.72
2023-07-31T17:57:32.310Z,22.75
2023-07-31T17:59:58.718Z,22.50
2023-07-31T18:02:26.142Z,22.52
2023-07-31T18:04:52.658Z,22.57
2023-07-31T18:07:19.959Z,22.35
2023-07-31T18:09:46.498Z,22.43
2023-07-31T18:12:13.040Z,22.49
2023-07-31T18:14:41.484Z,22.40
2023-07-31T18:17:09.920Z,22.52
2023-07-31T18:19:36.419Z,22.62
2023-07-31T18:22:02.849Z,22.59
2023-07-31T18:24:29.302Z,22.60
2023-07-31T18:26:55.745Z,22.53
2023-07-31T18:29:23.091Z,22.63
2023-07-31T18:31:51.437Z,22.56
2023-07-31T18:34:18.737Z,22.60
2023-07-31T18:36:45.208Z,22.58
2023-07-31T18:39:11.618Z,22.54
2023-07-31T18:41:38.032Z,22.43
2023-07-31T18:44:04.624Z,22.59
2023-07-31T18:46:31.191Z,22.62
2023-07-31T18:48:57.661Z,22.48
2023-07-31T18:51:24.216Z,22.49
2023-07-31T18:53:51.528Z,22.37
2023-07-31T18:56:18.077Z,22.07
2023-07-31T18:58:44.476Z,21.88
2023-07-31T19:01:10.934Z,21.85
2023-07-31T19:03:37.380Z,21.87
2023-07-31T19:06:04.014Z,21.82
2023-07-31T19:08:30.549Z,21.73
2023-07-31T19:10:56.974Z,21.66
2023-07-31T19:13:24.661Z,21.68
2023-07-31T19:15:51.092Z,21.57
2023-07-31T19:18:17.489Z,21.57
2023-07-31T19:20:43.941Z,21.60
2023-07-31T19:23:11.264Z,21.68
2023-07-31T19:25:38.590Z,21.61
2023-07-31T19:28:05.213Z,21.55
2023-07-31T19:30:32.552Z,21.60
2023-07-31T19:32:58.981Z,21.60
2023-07-31T19:35:26.332Z,21.62
2023-07-31T19:37:52.850Z,21.55
2023-07-31T19:40:19.278Z,21.59
2023-07-31T19:42:46.576Z,21.52
2023-07-31T19:45:13.901Z,21.43
2023-07-31T19:47:40.494Z,21.39
2023-07-31T19:50:07.871Z,21.48
2023-07-31T19:52:34.374Z,21.29
2023-07-31T19:55:04.383Z,21.39
2023-07-31T19:57:30.801Z,21.46
2023-07-31T19:59:57.270Z,21.33
2023-07-31T20:02:26.770Z,21.33
2023-07-31T20:04:53.588Z,21.32
2023-07-31T20:07:20.922Z,21.36
2023-07-31T20:09:47.333Z,21.29
2023-07-31T20:12:13.915Z,21.26
2023-07-31T20:14:41.219Z,21.26
2023-07-31T20:17:07.654Z,21.21
2023-07-31T20:19:36.886Z,21.27
2023-07-31T20:22:06.107Z,21.20
2023-07-31T20:24:32.509Z,21.12
2023-07-31T20:27:01.741Z,21.20
2023-07-31T20:29:29.052Z,21.21
2023-07-31T20:31:55.537Z,21.22
2023-07-31T20:34:22.836Z,21.33
2023-07-31T20:36:50.137Z,21.34
2023-07-31T20:39:16.553Z,21.55
2023-07-31T20:41:43.827Z,21.55
2023-07-31T20:44:11.124Z,21.64
2023-07-31T20:46:37.959Z,21.48
2023-07-31T20:49:05.649Z,21.39
2023-07-31T20:51:33.131Z,21.46
2023-07-31T20:54:00.588Z,21.71
2023-07-31T20:56:28.002Z,21.79
2023-07-31T20:58:58.000Z,21.53
2023-07-31T21:01:24.528Z,21.57
2023-07-31T21:03:51.159Z,21.62
2023-07-31T21:06:17.609Z,21.62
2023-07-31T21:08:44.899Z,21.69
2023-07-31T21:11:12.285Z,21.66
2023-07-31T21:13:38.703Z,21.66
2023-07-31T21:16:06.011Z,21.68
2023-07-31T21:18:32.444Z,21.61
2023-07-31T21:20:58.853Z,21.56
2023-07-31T21:23:25.349Z,21.64
2023-07-31T21:25:52.686Z,21.67
2023-07-31T21:28:20.005Z,21.80
2023-07-31T21:30:47.393Z,21.82
2023-07-31T21:33:14.813Z,21.83
2023-07-31T21:35:41.238Z,21.59
2023-07-31T21:38:07.655Z,21.58
2023-07-31T21:40:34.075Z,21.57
2023-07-31T21:43:00.462Z,21.63
2023-07-31T21:45:26.916Z,21.46
2023-07-31T21:47:53.492Z,21.35
2023-07-31T21:50:20.085Z,21.41
2023-07-31T21:52:46.480Z,21.39
2023-07-31T21:55:13.796Z,21.33
2023-07-31T21:57:40.197Z,21.41
2023-07-31T22:00:07.456Z,21.41
2023-07-31T22:02:33.999Z,21.21
2023-07-31T22:05:00.487Z,21.17
2023-07-31T22:07:26.932Z,21.12
2023-07-31T22:09:53.350Z,21.43
2023-07-31T22:12:19.824Z,21.26
2023-07-31T22:14:46.217Z,21.38
2023-07-31T22:17:13.510Z,21.28
2023-07-31T22:19:40.761Z,21.38
2023-07-31T22:22:08.048Z,21.44
2023-07-31T22:24:34.462Z,21.39
2023-07-31T22:27:00.897Z,21.39
2023-07-31T22:29:27.332Z,21.46
2023-07-31T22:31:53.750Z,21.40
2023-07-31T22:34:20.163Z,21.29
2023-07-31T22:36:46.609Z,21.22
2023-07-31T22:39:13.885Z,21.28
2023-07-31T22:41:40.276Z,21.37
2023-07-31T22:44:06.696Z,21.21
2023-07-31T22:46:33.197Z,21.22
2023-07-31T22:48:59.611Z,21.28
2023-07-31T22:51:26.023Z,21.29
2023-07-31T22:53:52.434Z,21.27
2023-07-31T22:56:18.847Z,21.21
2023-07-31T22:58:45.258Z,21.23
2023-07-31T23:01:11.714Z,21.24
2023-07-31T23:03:38.173Z,21.25
2023-07-31T23:06:04.586Z,21.15
2023-07-31T23:08:31.012Z,21.04
2023-07-31T23:10:57.450Z,21.14
2023-07-31T23:13:24.710Z,21.05
2023-07-31T23:15:51.196Z,21.07
2023-07-31T23:18:18.573Z,21.15
2023-07-31T23:20:44.987Z,21.10
2023-07-31T23:23:12.282Z,20.94
2023-07-31T23:25:38.733Z,20.95
2023-07-31T23:28:05.339Z,20.90
2023-07-31T23:30:31.911Z,20.98
2023-07-31T23:32:58.422Z,20.92
2023-07-31T23:35:24.897Z,20.87
2023-07-31T23:37:51.318Z,20.78
2023-07-31T23:40:17.734Z,20.82
2023-07-31T23:42:44.384Z,20.75
2023-07-31T23:45:11.976Z,20.78
2023-07-31T23:47:38.639Z,20.73
2023-07-31T23:50:06.015Z,20.64
2023-07-31T23:52:32.426Z,20.68
2023-07-31T23:54:59.725Z,20.70
2023-07-31T23:57:26.195Z,20.68
2023-07-31T23:59:52.613Z,20.74
